createdAt,value
2023-05-08T00:08:48.968Z,5.03
2023-05-08T00:18:53.771Z,5.10
2023-05-08T00:28:56.934Z,5.14
2023-05-08T00:39:00.043Z,5.05
2023-05-08T00:49:05.331Z,4.93
2023-05-08T00:59:10.530Z,4.86
2023-05-08T01:09:13.703Z,4.79
2023-05-08T01:19:38.108Z,4.70
2023-05-08T01:30:00.204Z,4.66
2023-05-08T01:40:20.746Z,4.60
2023-05-08T01:50:33.329Z,4.62
2023-05-08T02:00:40.960Z,4.64
2023-05-08T02:10:46.613Z,4.66
2023-05-08T02:20:51.975Z,4.67
2023-05-08T02:30:56.817Z,4.67
2023-05-08T02:41:03.861Z,4.64
2023-05-08T02:51:29.650Z,4.65
2023-05-08T03:01:48.551Z,4.58
2023-05-08T03:12:10.216Z,4.57
2023-05-08T03:22:16.268Z,4.58
2023-05-08T03:32:21.507Z,4.58
2023-05-08T03:42:26.434Z,4.58
2023-05-08T03:52:30.563Z,4.62
2023-05-08T04:02:57.801Z,4.63
2023-05-08T04:13:10.960Z,4.69
2023-05-08T04:23:22.092Z,4.58
2023-05-08T04:33:27.681Z,4.53
2023-05-08T04:43:31.156Z,4.51
2023-05-08T04:53:34.309Z,4.57
2023-05-08T05:03:38.101Z,4.59
2023-05-08T05:13:41.757Z,4.62
2023-05-08T05:23:44.962Z,4.70
2023-05-08T05:33:48.123Z,4.71
2023-05-08T05:43:51.801Z,4.78
2023-05-08T05:53:55.449Z,4.80
2023-05-08T06:03:59.412Z,5.00
2023-05-08T06:14:02.965Z,5.19
2023-05-08T06:24:07.097Z,5.20
2023-05-08T06:34:10.274Z,5.12
2023-05-08T06:44:13.473Z,5.00
2023-05-08T06:54:16.706Z,4.90
2023-05-08T07:04:20.266Z,4.91
2023-05-08T07:14:23.471Z,5.02
2023-05-08T07:24:26.530Z,5.16
2023-05-08T07:34:29.710Z,5.51
2023-05-08T07:44:43.669Z,5.97
2023-05-08T07:54:53.937Z,6.62
2023-05-08T08:04:57.131Z,7.14
2023-05-08T08:15:00.510Z,7.28
2023-05-08T08:25:03.887Z,7.18
2023-05-08T08:35:07.274Z,7.71
2023-05-08T08:45:11.481Z,7.78
2023-05-08T08:55:20.523Z,7.86
2023-05-08T09:05:26.790Z,8.01
2023-05-08T09:15:33.016Z,8.44
2023-05-08T09:25:43.576Z,8.32
2023-05-08T09:35:50.577Z,8.34
2023-05-08T09:45:53.837Z,8.26
2023-05-08T09:55:57.210Z,8.23
2023-05-08T10:06:13.771Z,8.31
2023-05-08T10:16:18.831Z,8.58
2023-05-08T10:26:27.810Z,9.37
2023-05-08T10:36:31.863Z,9.14
2023-05-08T10:46:49.597Z,8.53
2023-05-08T10:57:08.615Z,8.47
2023-05-08T11:07:11.928Z,8.96
2023-05-08T11:17:23.911Z,9.03
2023-05-08T11:27:33.691Z,9.06
2023-05-08T11:37:38.354Z,9.27
2023-05-08T11:47:43.466Z,9.75
2023-05-08T11:57:46.807Z,10.54
2023-05-08T12:07:52.283Z,10.35
2023-05-08T12:18:03.064Z,10.34
2023-05-08T12:28:07.618Z,9.99
2023-05-08T12:38:12.152Z,10.61
2023-05-08T12:48:15.801Z,10.54
2023-05-08T12:58:20.013Z,10.08
2023-05-08T13:08:37.082Z,9.88
2023-05-08T13:18:40.632Z,10.27
2023-05-08T13:28:44.232Z,10.33
2023-05-08T13:38:48.415Z,10.33
2023-05-08T13:48:52.206Z,10.38
2023-05-08T13:59:03.846Z,10.33
2023-05-08T14:09:12.695Z,10.32
2023-05-08T14:19:25.047Z,10.72
2023-05-08T14:29:34.242Z,10.57
2023-05-08T14:39:37.489Z,10.09
2023-05-08T14:49:40.791Z,10.15
2023-05-08T14:59:52.450Z,10.57
2023-05-08T15:09:58.088Z,10.87
2023-05-08T15:20:01.215Z,11.00
2023-05-08T15:30:05.565Z,10.95
2023-05-08T15:40:09.353Z,10.64
2023-05-08T15:50:12.699Z,10.31
2023-05-08T16:00:16.317Z,10.31
2023-05-08T16:10:19.568Z,10.23
2023-05-08T16:20:23.780Z,9.84
2023-05-08T16:30:27.610Z,9.57
2023-05-08T16:40:31.853Z,9.58
2023-05-08T16:50:34.967Z,9.64
2023-05-08T17:00:38.977Z,9.55
2023-05-08T17:10:44.051Z,9.35
2023-05-08T17:20:47.219Z,9.20
2023-05-08T17:30:52.893Z,9.06
2023-05-08T17:40:56.734Z,8.98
2023-05-08T17:51:02.620Z,8.80
2023-05-08T18:01:06.775Z,8.58
2023-05-08T18:11:21.367Z,8.52
2023-05-08T18:21:24.765Z,8.36
2023-05-08T18:31:28.098Z,8.21
2023-05-08T18:41:31.444Z,8.15
2023-05-08T18:51:34.772Z,7.92
2023-05-08T19:01:37.911Z,7.48
2023-05-08T19:11:41.161Z,6.91
2023-05-08T19:21:45.359Z,6.48
2023-05-08T19:31:48.619Z,6.22
2023-05-08T19:41:51.901Z,5.97
2023-05-08T19:51:55.038Z,5.52
2023-05-08T20:01:59.035Z,4.84
2023-05-08T20:12:02.199Z,4.28
2023-05-08T20:22:05.447Z,3.89
2023-05-08T20:32:08.691Z,3.59
2023-05-08T20:42:12.048Z,3.24
2023-05-08T20:52:15.158Z,2.90
2023-05-08T21:02:18.318Z,2.54
2023-05-08T21:12:21.958Z,2.42
2023-05-08T21:22:25.251Z,2.26
2023-05-08T21:32:28.485Z,2.00
2023-05-08T21:42:32.761Z,1.82
2023-05-08T21:52:36.033Z,1.61
2023-05-08T22:02:39.227Z,1.58
2023-05-08T22:12:43.910Z,1.44
2023-05-08T22:22:47.605Z,1.26
2023-05-08T22:32:57.777Z,1.17
2023-05-08T22:43:01.909Z,0.97
2023-05-08T22:53:08.388Z,0.83
2023-05-08T23:03:13.578Z,0.71
2023-05-08T23:13:16.788Z,0.74
2023-05-08T23:23:19.927Z,0.79
2023-05-08T23:33:23.370Z,0.81
2023-05-08T23:43:27.279Z,0.76
2023-05-08T23:53:30.995Z,0.63
